createdAt,value
2022-11-06T00:01:31.974Z,2.47
2022-11-06T00:03:59.091Z,2.42
2022-11-06T00:06:44.924Z,1.73
2022-11-06T00:09:13.749Z,1.77
2022-11-06T00:11:41.932Z,1.60
2022-11-06T00:14:09.126Z,2.10
2022-11-06T00:16:38.630Z,2.55
2022-11-06T00:19:06.577Z,1.63
2022-11-06T00:21:33.980Z,2.53
2022-11-06T00:24:03.241Z,1.70
2022-11-06T00:26:31.367Z,2.17
2022-11-06T00:28:58.859Z,1.50
2022-11-06T00:31:28.440Z,2.78
2022-11-06T00:33:57.541Z,2.63
2022-11-06T00:36:25.864Z,1.70
2022-11-06T00:38:56.609Z,2.53
2022-11-06T00:41:24.813Z,2.15
2022-11-06T00:43:54.483Z,1.70
2022-11-06T00:46:21.857Z,2.60
2022-11-06T00:48:49.004Z,1.90
2022-11-06T00:51:17.280Z,1.95
2022-11-06T00:53:45.153Z,1.95
2022-11-06T00:56:15.563Z,2.15
2022-11-06T01:01:15.416Z,2.90
2022-11-06T01:03:44.200Z,3.78
2022-11-06T01:06:22.685Z,1.83
2022-11-06T01:08:50.136Z,2.50
2022-11-06T01:11:46.534Z,2.15
2022-11-06T01:14:19.279Z,1.52
2022-11-06T01:16:46.269Z,1.98
2022-11-06T01:19:14.632Z,2.22
2022-11-06T01:21:43.995Z,3.55
2022-11-06T01:24:19.739Z,2.05
2022-11-06T01:27:05.287Z,4.40
2022-11-06T01:29:34.233Z,2.55
2022-11-06T01:32:01.104Z,1.85
2022-11-06T01:34:28.300Z,1.90
2022-11-06T01:36:55.209Z,3.38
2022-11-06T01:39:22.050Z,2.10
2022-11-06T01:41:52.207Z,2.65
2022-11-06T01:44:41.326Z,2.38
2022-11-06T01:47:21.780Z,1.95
2022-11-06T01:49:50.441Z,2.20
2022-11-06T01:52:18.528Z,2.55
2022-11-06T01:54:48.607Z,2.55
2022-11-06T01:57:15.603Z,1.98
2022-11-06T01:59:45.952Z,3.10
2022-11-06T02:02:16.313Z,2.60
2022-11-06T02:04:46.136Z,2.50
2022-11-06T02:07:13.287Z,2.88
2022-11-06T02:09:41.688Z,2.45
2022-11-06T02:12:17.995Z,3.35
2022-11-06T02:15:01.102Z,2.92
2022-11-06T02:17:55.391Z,2.67
2022-11-06T02:20:25.143Z,5.40
2022-11-06T02:23:00.924Z,2.97
2022-11-06T02:25:52.385Z,3.58
2022-11-06T02:28:28.523Z,3.00
2022-11-06T02:30:58.346Z,3.13
2022-11-06T02:33:41.051Z,2.25
2022-11-06T02:36:12.051Z,3.83
2022-11-06T02:38:55.077Z,3.47
2022-11-06T02:41:28.354Z,3.50
2022-11-06T02:43:57.000Z,2.92
2022-11-06T02:46:37.740Z,2.78
2022-11-06T02:49:30.701Z,2.30
2022-11-06T02:52:04.915Z,3.47
2022-11-06T02:54:37.131Z,2.75
2022-11-06T02:57:07.929Z,3.50
2022-11-06T02:59:50.240Z,2.70
2022-11-06T03:02:23.467Z,2.95
2022-11-06T03:05:00.586Z,3.67
2022-11-06T03:07:31.233Z,2.88
2022-11-06T03:09:58.316Z,3.90
2022-11-06T03:12:37.618Z,3.28
2022-11-06T03:15:13.588Z,3.92
2022-11-06T03:18:13.361Z,4.03
2022-11-06T03:20:53.528Z,4.10
2022-11-06T03:23:28.695Z,3.53
2022-11-06T03:26:20.042Z,4.45
2022-11-06T03:29:16.988Z,3.67
2022-11-06T03:31:53.719Z,3.90
2022-11-06T03:34:32.602Z,3.88
2022-11-06T03:37:07.852Z,3.92
2022-11-06T03:39:39.965Z,4.20
2022-11-06T03:42:11.032Z,4.60
2022-11-06T03:44:43.635Z,4.80
2022-11-06T03:47:24.934Z,4.22
2022-11-06T03:50:00.646Z,4.00
2022-11-06T03:52:38.244Z,3.55
2022-11-06T03:55:22.623Z,3.20
2022-11-06T03:57:57.157Z,3.53
2022-11-06T04:00:24.365Z,3.13
2022-11-06T04:03:04.883Z,4.05
2022-11-06T04:05:44.140Z,4.05
2022-11-06T04:08:30.962Z,3.25
2022-11-06T04:11:20.447Z,4.07
2022-11-06T04:14:01.024Z,4.47
2022-11-06T04:16:36.289Z,3.42
2022-11-06T04:19:05.956Z,4.20
2022-11-06T04:21:48.303Z,3.72
2022-11-06T04:24:51.695Z,3.10
2022-11-06T04:27:33.450Z,3.60
2022-11-06T04:30:11.915Z,3.63
2022-11-06T04:33:06.618Z,3.28
2022-11-06T04:35:39.194Z,3.28
2022-11-06T04:38:17.798Z,4.68
2022-11-06T04:41:16.949Z,3.75
2022-11-06T04:43:46.599Z,3.88
2022-11-06T04:46:37.097Z,4.38
2022-11-06T04:51:35.598Z,4.95
2022-11-06T04:54:02.944Z,3.85
2022-11-06T04:56:34.854Z,4.68
2022-11-06T04:59:03.955Z,4.55
2022-11-06T05:01:30.950Z,4.82
2022-11-06T05:03:58.079Z,5.10
2022-11-06T05:06:29.781Z,4.65
2022-11-06T05:08:58.315Z,4.35
2022-11-06T05:11:25.367Z,4.78
2022-11-06T05:13:52.293Z,4.15
2022-11-06T05:16:19.121Z,5.28
2022-11-06T05:18:46.001Z,5.22
2022-11-06T05:21:33.800Z,5.03
2022-11-06T05:24:00.647Z,5.53
2022-11-06T05:26:27.488Z,4.75
2022-11-06T05:28:54.372Z,5.13
2022-11-06T05:31:21.383Z,4.55
2022-11-06T05:33:48.355Z,4.47
2022-11-06T05:36:15.283Z,5.05
2022-11-06T05:38:42.195Z,5.72
2022-11-06T05:41:09.065Z,4.53
2022-11-06T05:43:35.977Z,5.55
2022-11-06T05:46:03.361Z,5.63
2022-11-06T05:48:30.613Z,4.95
2022-11-06T05:51:04.856Z,5.95
2022-11-06T05:53:34.159Z,5.05
2022-11-06T05:56:01.299Z,5.78
2022-11-06T05:58:28.790Z,5.13
2022-11-06T06:00:56.241Z,5.90
2022-11-06T06:03:23.658Z,5.72
2022-11-06T06:05:50.578Z,6.32
2022-11-06T06:08:18.163Z,6.40
2022-11-06T06:10:46.572Z,8.52
2022-11-06T06:13:14.782Z,9.32
2022-11-06T06:15:42.927Z,18.08
2022-11-06T06:18:10.365Z,10.05
2022-11-06T06:20:37.717Z,9.15
2022-11-06T06:23:08.342Z,9.95
2022-11-06T06:25:36.271Z,8.90
2022-11-06T06:28:03.096Z,8.23
2022-11-06T06:30:30.158Z,11.68
2022-11-06T06:32:57.022Z,27.58
2022-11-06T06:35:23.854Z,10.30
2022-11-06T06:37:52.832Z,12.05
2022-11-06T06:40:23.254Z,10.02
2022-11-06T06:45:17.101Z,6.68
2022-11-06T06:47:44.059Z,7.57
2022-11-06T06:50:11.081Z,7.15
2022-11-06T06:52:37.902Z,6.30
2022-11-06T06:55:05.563Z,7.00
2022-11-06T06:57:32.677Z,7.35
2022-11-06T06:59:59.579Z,5.30
2022-11-06T07:02:26.547Z,5.88
2022-11-06T07:04:53.446Z,7.47
2022-11-06T07:07:20.274Z,5.70
2022-11-06T07:09:47.258Z,8.32
2022-11-06T07:12:14.099Z,7.22
2022-11-06T07:14:41.048Z,4.60
2022-11-06T07:17:07.990Z,4.45
2022-11-06T07:19:34.818Z,4.90
2022-11-06T07:22:01.683Z,5.63
2022-11-06T07:24:28.533Z,4.93
2022-11-06T07:26:55.404Z,4.68
2022-11-06T07:29:22.296Z,5.20
2022-11-06T07:31:49.206Z,4.10
2022-11-06T07:34:16.084Z,5.53
2022-11-06T07:36:42.949Z,5.00
2022-11-06T07:39:09.794Z,4.65
2022-11-06T07:41:37.964Z,3.83
2022-11-06T07:44:04.929Z,4.50
2022-11-06T07:46:32.242Z,3.10
2022-11-06T07:48:59.149Z,4.97
2022-11-06T07:51:26.036Z,5.00
2022-11-06T07:53:52.903Z,4.45
2022-11-06T07:56:19.807Z,4.70
2022-11-06T07:58:46.660Z,4.10
2022-11-06T08:01:18.494Z,4.30
2022-11-06T08:03:45.956Z,5.40
2022-11-06T08:06:13.169Z,5.03
2022-11-06T08:08:40.045Z,5.13
2022-11-06T08:11:09.552Z,4.63
2022-11-06T08:13:36.753Z,5.32
2022-11-06T08:16:11.099Z,5.43
2022-11-06T08:18:38.391Z,5.35
2022-11-06T08:21:07.041Z,4.97
2022-11-06T08:23:34.850Z,3.80
2022-11-06T08:26:04.618Z,4.30
2022-11-06T08:28:31.508Z,4.57
2022-11-06T08:30:58.396Z,4.38
2022-11-06T08:33:26.094Z,3.60
2022-11-06T08:35:53.058Z,4.90
2022-11-06T08:38:20.002Z,3.22
2022-11-06T08:40:52.288Z,3.63
2022-11-06T08:43:20.450Z,3.75
2022-11-06T08:45:47.259Z,3.65
2022-11-06T08:48:14.068Z,5.55
2022-11-06T08:50:41.922Z,4.25
2022-11-06T08:53:09.201Z,5.30
2022-11-06T08:55:38.726Z,4.43
2022-11-06T08:58:06.591Z,6.20
2022-11-06T09:00:33.978Z,5.78
2022-11-06T09:03:13.780Z,5.03
2022-11-06T09:05:42.430Z,6.55
2022-11-06T09:08:10.569Z,4.40
2022-11-06T09:10:38.935Z,3.88
2022-11-06T09:13:06.288Z,3.40
2022-11-06T09:15:33.311Z,4.30
2022-11-06T09:18:00.226Z,4.00
2022-11-06T09:20:27.126Z,3.95
2022-11-06T09:22:54.557Z,3.33
2022-11-06T09:25:21.989Z,4.15
2022-11-06T09:27:57.301Z,4.38
2022-11-06T09:30:26.687Z,4.38
2022-11-06T09:33:03.751Z,3.80
2022-11-06T09:35:33.499Z,4.38
2022-11-06T09:38:05.826Z,4.75
2022-11-06T09:40:39.509Z,4.00
2022-11-06T09:46:29.603Z,4.43
2022-11-06T09:49:02.318Z,3.92
2022-11-06T09:51:41.582Z,3.88
2022-11-06T09:54:29.057Z,3.92
2022-11-06T09:57:06.511Z,3.13
2022-11-06T09:59:37.474Z,4.00
2022-11-06T10:02:21.452Z,3.15
2022-11-06T10:05:09.875Z,2.83
2022-11-06T10:07:39.720Z,3.25
2022-11-06T10:10:18.156Z,3.08
2022-11-06T10:12:56.986Z,2.88
2022-11-06T10:15:29.129Z,2.78
2022-11-06T10:18:26.291Z,2.80
2022-11-06T10:20:55.094Z,4.82
2022-11-06T10:23:50.628Z,4.20
2022-11-06T10:26:20.014Z,2.70
2022-11-06T10:29:12.152Z,3.33
2022-11-06T10:32:16.748Z,3.88
2022-11-06T10:34:52.051Z,3.25
2022-11-06T10:37:31.327Z,2.83
2022-11-06T10:39:59.633Z,2.70
2022-11-06T10:42:37.696Z,3.17
2022-11-06T10:45:16.101Z,3.22
2022-11-06T10:47:49.730Z,3.20
2022-11-06T10:50:18.005Z,2.80
2022-11-06T10:52:47.911Z,2.70
2022-11-06T10:55:36.206Z,2.53
2022-11-06T10:58:09.509Z,3.05
2022-11-06T11:00:37.158Z,3.65
2022-11-06T11:03:06.981Z,3.15
2022-11-06T11:05:44.371Z,4.20
2022-11-06T11:08:42.042Z,2.50
2022-11-06T11:11:15.479Z,2.75
2022-11-06T11:13:47.399Z,2.67
2022-11-06T11:16:34.180Z,1.88
2022-11-06T11:19:32.712Z,2.28
2022-11-06T11:22:02.009Z,2.35
2022-11-06T11:24:29.462Z,2.53
2022-11-06T11:27:04.415Z,2.35
2022-11-06T11:29:41.363Z,2.28
2022-11-06T11:32:08.590Z,2.40
2022-11-06T11:34:49.185Z,2.53
2022-11-06T11:37:36.104Z,2.33
2022-11-06T11:40:36.594Z,2.60
2022-11-06T11:46:09.503Z,3.10
2022-11-06T11:48:45.037Z,2.60
2022-11-06T11:51:18.013Z,2.58
2022-11-06T11:53:45.234Z,3.08
2022-11-06T11:56:36.423Z,2.95
2022-11-06T11:59:15.427Z,3.60
2022-11-06T12:01:42.503Z,2.80
2022-11-06T12:04:14.770Z,2.85
2022-11-06T12:06:53.974Z,3.38
2022-11-06T12:09:21.765Z,3.03
2022-11-06T12:11:48.989Z,2.88
2022-11-06T12:14:16.788Z,3.88
2022-11-06T12:16:48.459Z,3.30
2022-11-06T12:19:16.440Z,2.33
2022-11-06T12:21:49.524Z,2.92
2022-11-06T12:24:25.807Z,2.80
2022-11-06T12:27:02.999Z,2.55
2022-11-06T12:29:45.310Z,2.05
2022-11-06T12:32:39.656Z,2.83
2022-11-06T12:35:23.947Z,2.40
2022-11-06T12:38:16.721Z,2.65
2022-11-06T12:41:01.655Z,3.33
2022-11-06T12:43:40.152Z,3.17
2022-11-06T12:46:28.054Z,3.97
2022-11-06T12:49:03.888Z,3.42
2022-11-06T12:51:40.195Z,4.18
2022-11-06T12:54:31.718Z,3.35
2022-11-06T12:57:10.216Z,3.83
2022-11-06T13:00:01.024Z,3.88
2022-11-06T13:02:40.505Z,4.25
2022-11-06T13:05:16.729Z,5.38
2022-11-06T13:08:12.328Z,3.40
2022-11-06T13:10:51.530Z,4.00
2022-11-06T13:13:42.580Z,2.80
2022-11-06T13:16:24.162Z,3.60
2022-11-06T13:19:00.826Z,5.05
2022-11-06T13:21:51.703Z,5.00
2022-11-06T13:24:59.908Z,3.45
2022-11-06T13:27:50.338Z,3.40
2022-11-06T13:30:22.513Z,3.30
2022-11-06T13:33:30.060Z,3.40
2022-11-06T13:35:58.716Z,3.30
2022-11-06T13:38:33.793Z,4.10
2022-11-06T13:41:06.651Z,4.43
2022-11-06T13:43:54.056Z,8.18
2022-11-06T13:46:23.968Z,4.55
2022-11-06T13:49:04.738Z,4.38
2022-11-06T13:51:54.924Z,3.92
2022-11-06T13:54:51.205Z,4.03
2022-11-06T13:57:33.281Z,4.22
2022-11-06T14:00:23.836Z,4.70
2022-11-06T14:05:52.516Z,4.35
2022-11-06T14:08:53.283Z,4.05
2022-11-06T14:11:26.810Z,5.80
2022-11-06T14:14:22.364Z,5.72
2022-11-06T14:17:11.253Z,4.80
2022-11-06T14:19:39.342Z,4.63
2022-11-06T14:22:09.123Z,5.13
2022-11-06T14:24:40.450Z,4.88
2022-11-06T14:27:18.725Z,4.32
2022-11-06T14:30:05.516Z,5.32
2022-11-06T14:32:33.866Z,4.68
2022-11-06T14:35:28.746Z,4.05
2022-11-06T14:38:16.137Z,4.35
2022-11-06T14:40:44.100Z,4.57
2022-11-06T14:43:34.381Z,5.05
2022-11-06T14:46:16.305Z,4.40
2022-11-06T14:48:46.592Z,4.35
2022-11-06T14:51:15.580Z,4.47
2022-11-06T14:53:51.469Z,4.45
2022-11-06T14:56:30.413Z,4.22
2022-11-06T14:59:04.853Z,4.57
2022-11-06T15:01:34.196Z,4.50
2022-11-06T15:04:31.670Z,4.18
2022-11-06T15:07:09.516Z,3.95
2022-11-06T15:09:39.369Z,3.38
2022-11-06T15:12:08.018Z,3.53
2022-11-06T15:14:34.844Z,5.07
2022-11-06T15:17:13.020Z,3.92
2022-11-06T15:19:59.372Z,3.60
2022-11-06T15:22:51.820Z,4.03
2022-11-06T15:25:28.128Z,4.32
2022-11-06T15:28:14.621Z,3.65
2022-11-06T15:30:59.759Z,3.83
2022-11-06T15:33:52.954Z,4.20
2022-11-06T15:36:23.478Z,3.63
2022-11-06T15:38:50.391Z,3.08
2022-11-06T15:41:27.708Z,3.40
2022-11-06T15:43:56.037Z,3.15
2022-11-06T15:46:29.856Z,3.00
2022-11-06T15:49:18.135Z,3.75
2022-11-06T15:52:03.880Z,4.55
2022-11-06T15:54:43.876Z,3.03
2022-11-06T15:57:19.330Z,2.88
2022-11-06T15:59:46.443Z,3.42
2022-11-06T16:02:22.448Z,3.75
2022-11-06T16:04:51.429Z,3.33
2022-11-06T16:07:19.534Z,5.82
2022-11-06T16:09:47.315Z,4.18
2022-11-06T16:12:17.259Z,3.95
2022-11-06T16:14:45.088Z,4.10
2022-11-06T16:17:32.356Z,4.78
2022-11-06T16:20:02.409Z,5.35
2022-11-06T16:22:31.232Z,8.40
2022-11-06T16:25:01.812Z,7.38
2022-11-06T16:27:34.900Z,4.53
2022-11-06T16:30:06.521Z,6.43
2022-11-06T16:32:40.499Z,6.75
2022-11-06T16:35:30.281Z,5.03
2022-11-06T16:38:12.759Z,5.13
2022-11-06T16:40:51.139Z,4.70
2022-11-06T16:43:20.700Z,4.07
2022-11-06T16:46:00.765Z,3.85
2022-11-06T16:48:34.586Z,5.53
2022-11-06T16:51:14.189Z,4.18
2022-11-06T16:53:54.303Z,4.70
2022-11-06T16:56:33.138Z,3.30
2022-11-06T16:59:05.922Z,3.60
2022-11-06T17:01:45.078Z,3.40
2022-11-06T17:04:24.064Z,3.90
2022-11-06T17:06:52.295Z,3.92
2022-11-06T17:09:31.701Z,3.83
2022-11-06T17:12:00.143Z,3.45
2022-11-06T17:14:28.152Z,3.22
2022-11-06T17:17:00.322Z,3.15
2022-11-06T17:19:28.734Z,3.05
2022-11-06T17:21:55.861Z,2.90
2022-11-06T17:24:38.376Z,3.03
2022-11-06T17:27:05.786Z,3.15
2022-11-06T17:29:34.254Z,2.70
2022-11-06T17:32:01.072Z,3.58
2022-11-06T17:34:27.913Z,3.58
2022-11-06T17:36:54.879Z,3.65
2022-11-06T17:39:22.567Z,2.90
2022-11-06T17:41:49.508Z,3.05
2022-11-06T17:44:17.406Z,3.40
2022-11-06T17:46:46.636Z,3.20
2022-11-06T17:49:18.014Z,4.55
2022-11-06T17:52:00.146Z,3.65
2022-11-06T17:54:32.283Z,3.38
2022-11-06T17:57:02.252Z,3.40
2022-11-06T17:59:29.183Z,4.82
2022-11-06T18:01:57.626Z,3.83
2022-11-06T18:04:27.176Z,3.00
2022-11-06T18:06:54.792Z,3.55
2022-11-06T18:09:22.698Z,3.35
2022-11-06T18:14:20.865Z,4.47
2022-11-06T18:16:51.461Z,3.70
2022-11-06T18:19:21.821Z,3.97
2022-11-06T18:24:15.911Z,3.63
2022-11-06T18:26:42.788Z,3.20
2022-11-06T18:29:11.328Z,3.42
2022-11-06T18:31:38.379Z,2.80
2022-11-06T18:34:06.424Z,3.30
2022-11-06T18:36:35.074Z,3.30
2022-11-06T18:39:02.081Z,3.90
2022-11-06T18:41:30.038Z,3.70
2022-11-06T18:43:57.826Z,5.85
2022-11-06T18:46:26.840Z,5.07
2022-11-06T18:48:55.456Z,5.22
2022-11-06T18:51:34.472Z,5.90
2022-11-06T18:54:07.940Z,4.97
2022-11-06T18:56:38.935Z,4.38
2022-11-06T18:59:08.262Z,3.10
2022-11-06T19:01:35.483Z,2.80
2022-11-06T19:04:03.858Z,3.22
2022-11-06T19:06:31.689Z,2.22
2022-11-06T19:08:58.935Z,2.45
2022-11-06T19:11:25.895Z,2.17
2022-11-06T19:13:53.001Z,3.25
2022-11-06T19:16:20.005Z,2.25
2022-11-06T19:21:30.008Z,2.03
2022-11-06T19:24:03.819Z,1.77
2022-11-06T19:26:32.726Z,2.97
2022-11-06T19:29:00.855Z,2.55
2022-11-06T19:31:29.510Z,2.08
2022-11-06T19:34:00.844Z,1.90
2022-11-06T19:36:28.313Z,2.13
2022-11-06T19:38:57.181Z,2.17
2022-11-06T19:41:28.327Z,2.00
2022-11-06T19:43:55.295Z,2.17
2022-11-06T19:46:25.998Z,4.60
2022-11-06T19:48:55.467Z,6.82
2022-11-06T19:51:22.438Z,3.75
2022-11-06T19:53:53.295Z,3.75
2022-11-06T19:56:21.093Z,2.97
2022-11-06T19:58:50.076Z,3.30
2022-11-06T20:01:17.504Z,3.22
2022-11-06T20:03:44.729Z,4.28
2022-11-06T20:06:13.356Z,4.10
2022-11-06T20:08:40.638Z,5.07
2022-11-06T20:11:12.427Z,3.45
2022-11-06T20:13:40.758Z,4.22
2022-11-06T20:16:13.352Z,4.43
2022-11-06T20:18:40.468Z,7.43
2022-11-06T20:21:10.009Z,6.75
2022-11-06T20:23:37.558Z,5.78
2022-11-06T20:26:05.422Z,8.38
2022-11-06T20:28:33.117Z,6.13
2022-11-06T20:31:00.071Z,8.77
2022-11-06T20:33:27.049Z,9.07
2022-11-06T20:35:53.924Z,7.60
2022-11-06T20:38:20.934Z,6.35
2022-11-06T20:40:47.774Z,5.05
2022-11-06T20:43:15.009Z,5.53
2022-11-06T20:45:42.033Z,4.95
2022-11-06T20:48:09.388Z,5.60
2022-11-06T20:50:36.452Z,5.90
2022-11-06T20:53:03.388Z,6.28
2022-11-06T20:55:30.385Z,5.05
2022-11-06T20:57:57.290Z,5.22
2022-11-06T21:00:24.931Z,4.93
2022-11-06T21:02:53.557Z,6.05
2022-11-06T21:05:23.323Z,5.13
2022-11-06T21:07:50.185Z,4.97
2022-11-06T21:10:17.149Z,5.93
2022-11-06T21:12:44.031Z,5.22
2022-11-06T21:15:10.975Z,4.80
2022-11-06T21:17:42.470Z,4.57
2022-11-06T21:20:10.901Z,4.00
2022-11-06T21:22:37.783Z,5.43
2022-11-06T21:25:04.976Z,4.35
2022-11-06T21:27:31.865Z,3.15
2022-11-06T21:29:58.735Z,4.35
2022-11-06T21:32:27.534Z,4.38
2022-11-06T21:34:54.466Z,4.53
2022-11-06T21:37:32.773Z,4.70
2022-11-06T21:40:00.616Z,4.38
2022-11-06T21:42:28.030Z,4.10
2022-11-06T21:44:55.016Z,4.28
2022-11-06T21:47:21.882Z,4.25
2022-11-06T21:49:54.126Z,5.43
2022-11-06T21:52:40.859Z,4.63
2022-11-06T21:55:28.376Z,4.22
2022-11-06T21:57:55.286Z,3.72
2022-11-06T22:00:22.216Z,4.78
2022-11-06T22:02:51.098Z,3.35
2022-11-06T22:05:18.486Z,3.95
2022-11-06T22:07:45.666Z,3.25
2022-11-06T22:10:12.946Z,4.55
2022-11-06T22:12:39.816Z,4.05
2022-11-06T22:15:07.272Z,3.55
2022-11-06T22:17:34.246Z,3.40
2022-11-06T22:20:01.210Z,3.95
2022-11-06T22:22:28.110Z,3.17
2022-11-06T22:24:54.913Z,4.07
2022-11-06T22:27:21.895Z,3.22
2022-11-06T22:29:48.698Z,4.28
2022-11-06T22:32:15.597Z,4.00
2022-11-06T22:34:42.469Z,3.47
2022-11-06T22:37:09.421Z,3.55
2022-11-06T22:39:36.419Z,4.68
2022-11-06T22:42:03.589Z,4.35
2022-11-06T22:44:35.083Z,4.03
2022-11-06T22:47:02.480Z,4.53
2022-11-06T22:49:29.328Z,4.30
2022-11-06T22:51:56.200Z,4.32
2022-11-06T22:54:23.183Z,4.60
2022-11-06T22:56:50.143Z,3.28
2022-11-06T22:59:16.964Z,4.75
2022-11-06T23:01:43.906Z,3.67
2022-11-06T23:04:15.405Z,3.88
2022-11-06T23:06:43.825Z,4.03
2022-11-06T23:09:10.798Z,4.22
2022-11-06T23:11:37.666Z,5.15
2022-11-06T23:14:08.501Z,4.63
2022-11-06T23:16:54.944Z,3.83
2022-11-06T23:19:22.542Z,6.43
2022-11-06T23:21:49.647Z,5.60
2022-11-06T23:24:16.494Z,6.68
2022-11-06T23:26:44.567Z,6.20
2022-11-06T23:29:11.458Z,7.05
2022-11-06T23:31:38.734Z,7.10
2022-11-06T23:34:05.648Z,7.63
2022-11-06T23:36:32.512Z,7.60
2022-11-06T23:38:59.524Z,7.72
2022-11-06T23:41:45.950Z,9.02
2022-11-06T23:44:33.188Z,9.48
2022-11-06T23:47:00.950Z,9.32
2022-11-06T23:49:28.072Z,9.50
2022-11-06T23:51:55.008Z,10.68
2022-11-06T23:54:21.950Z,8.23
2022-11-06T23:56:48.784Z,10.40
2022-11-06T23:59:15.894Z,9.52
